sensor_id;sensor_type;location;lat;lon;timestamp;P1;durP1;ratioP1;P2;durP2;ratioP2
5616;SDS011;2830;50.656;7.568;2023-04-25T00:00:15;13.60;;;4.97;;
5616;SDS011;2830;50.656;7.568;2023-04-25T00:02:41;16.13;;;5.25;;
5616;SDS011;2830;50.656;7.568;2023-04-25T00:05:08;13.20;;;3.63;;
5616;SDS011;2830;50.656;7.568;2023-04-25T00:07:35;16.45;;;4.82;;
5616;SDS011;2830;50.656;7.568;2023-04-25T00:10:02;17.17;;;4.38;;
5616;SDS011;2830;50.656;7.568;2023-04-25T00:12:29;17.65;;;6.13;;
5616;SDS011;2830;50.656;7.568;2023-04-25T00:14:56;18.10;;;7.50;;
5616;SDS011;2830;50.656;7.568;2023-04-25T00:17:23;20.85;;;6.60;;
5616;SDS011;2830;50.656;7.568;2023-04-25T00:19:53;13.98;;;4.22;;
5616;SDS011;2830;50.656;7.568;2023-04-25T00:22:20;14.68;;;5.28;;
5616;SDS011;2830;50.656;7.568;2023-04-25T00:24:47;13.17;;;4.60;;
5616;SDS011;2830;50.656;7.568;2023-04-25T00:27:13;14.65;;;5.32;;
5616;SDS011;2830;50.656;7.568;2023-04-25T00:29:40;15.60;;;4.90;;
5616;SDS011;2830;50.656;7.568;2023-04-25T00:32:07;15.73;;;5.07;;
5616;SDS011;2830;50.656;7.568;2023-04-25T00:34:33;15.50;;;5.78;;
5616;SDS011;2830;50.656;7.568;2023-04-25T00:37:00;17.35;;;5.25;;
5616;SDS011;2830;50.656;7.568;2023-04-25T00:39:28;14.73;;;4.60;;
5616;SDS011;2830;50.656;7.568;2023-04-25T00:41:54;16.13;;;4.78;;
5616;SDS011;2830;50.656;7.568;2023-04-25T00:44:21;11.48;;;4.13;;
5616;SDS011;2830;50.656;7.568;2023-04-25T00:46:52;20.95;;;6.57;;
5616;SDS011;2830;50.656;7.568;2023-04-25T00:49:19;12.82;;;4.50;;
5616;SDS011;2830;50.656;7.568;2023-04-25T00:51:46;13.10;;;5.13;;
5616;SDS011;2830;50.656;7.568;2023-04-25T00:54:13;14.15;;;4.80;;
5616;SDS011;2830;50.656;7.568;2023-04-25T00:56:40;16.63;;;6.10;;
5616;SDS011;2830;50.656;7.568;2023-04-25T00:59:08;14.20;;;4.70;;
5616;SDS011;2830;50.656;7.568;2023-04-25T01:01:36;14.57;;;4.70;;
5616;SDS011;2830;50.656;7.568;2023-04-25T01:04:04;14.13;;;5.20;;
5616;SDS011;2830;50.656;7.568;2023-04-25T01:06:31;14.32;;;5.05;;
5616;SDS011;2830;50.656;7.568;2023-04-25T01:08:58;12.40;;;4.50;;
5616;SDS011;2830;50.656;7.568;2023-04-25T01:11:25;13.18;;;5.20;;
5616;SDS011;2830;50.656;7.568;2023-04-25T01:13:52;13.85;;;4.30;;
5616;SDS011;2830;50.656;7.568;2023-04-25T01:16:18;12.98;;;4.70;;
5616;SDS011;2830;50.656;7.568;2023-04-25T01:18:46;11.98;;;3.80;;
5616;SDS011;2830;50.656;7.568;2023-04-25T01:21:13;11.88;;;4.32;;
5616;SDS011;2830;50.656;7.568;2023-04-25T01:23:41;15.80;;;3.78;;
5616;SDS011;2830;50.656;7.568;2023-04-25T01:26:08;20.70;;;3.88;;
5616;SDS011;2830;50.656;7.568;2023-04-25T01:28:36;14.13;;;4.03;;
5616;SDS011;2830;50.656;7.568;2023-04-25T01:31:07;13.98;;;4.50;;
5616;SDS011;2830;50.656;7.568;2023-04-25T01:33:34;13.68;;;3.95;;
5616;SDS011;2830;50.656;7.568;2023-04-25T01:36:01;15.07;;;4.65;;
5616;SDS011;2830;50.656;7.568;2023-04-25T01:38:28;13.85;;;4.32;;
5616;SDS011;2830;50.656;7.568;2023-04-25T01:40:55;11.63;;;3.83;;
5616;SDS011;2830;50.656;7.568;2023-04-25T01:43:22;17.00;;;4.57;;
5616;SDS011;2830;50.656;7.568;2023-04-25T01:45:49;14.93;;;4.57;;
5616;SDS011;2830;50.656;7.568;2023-04-25T01:48:16;14.57;;;4.85;;
5616;SDS011;2830;50.656;7.568;2023-04-25T01:50:43;13.98;;;4.72;;
5616;SDS011;2830;50.656;7.568;2023-04-25T01:53:12;16.42;;;5.88;;
5616;SDS011;2830;50.656;7.568;2023-04-25T01:55:39;16.08;;;5.13;;
5616;SDS011;2830;50.656;7.568;2023-04-25T01:58:06;12.43;;;4.00;;
5616;SDS011;2830;50.656;7.568;2023-04-25T02:00:35;13.55;;;3.97;;
5616;SDS011;2830;50.656;7.568;2023-04-25T02:03:05;13.55;;;4.00;;
5616;SDS011;2830;50.656;7.568;2023-04-25T02:05:35;12.25;;;4.78;;
5616;SDS011;2830;50.656;7.568;2023-04-25T02:08:06;14.02;;;3.90;;
5616;SDS011;2830;50.656;7.568;2023-04-25T02:10:34;21.15;;;4.15;;
5616;SDS011;2830;50.656;7.568;2023-04-25T02:13:01;15.65;;;4.28;;
5616;SDS011;2830;50.656;7.568;2023-04-25T02:15:28;13.48;;;4.28;;
5616;SDS011;2830;50.656;7.568;2023-04-25T02:17:55;13.25;;;4.88;;
5616;SDS011;2830;50.656;7.568;2023-04-25T02:20:22;10.75;;;3.15;;
5616;SDS011;2830;50.656;7.568;2023-04-25T02:22:50;12.20;;;3.78;;
5616;SDS011;2830;50.656;7.568;2023-04-25T02:25:17;13.73;;;3.95;;
5616;SDS011;2830;50.656;7.568;2023-04-25T02:27:49;12.65;;;4.57;;
5616;SDS011;2830;50.656;7.568;2023-04-25T02:30:17;13.43;;;4.07;;
5616;SDS011;2830;50.656;7.568;2023-04-25T02:32:44;12.75;;;3.60;;
5616;SDS011;2830;50.656;7.568;2023-04-25T02:35:10;18.55;;;3.83;;
5616;SDS011;2830;50.656;7.568;2023-04-25T02:37:37;16.17;;;3.72;;
5616;SDS011;2830;50.656;7.568;2023-04-25T02:40:05;16.33;;;4.13;;
5616;SDS011;2830;50.656;7.568;2023-04-25T02:42:32;10.50;;;3.03;;
5616;SDS011;2830;50.656;7.568;2023-04-25T02:45:01;11.70;;;4.00;;
5616;SDS011;2830;50.656;7.568;2023-04-25T02:47:28;15.38;;;3.83;;
5616;SDS011;2830;50.656;7.568;2023-04-25T02:49:55;12.63;;;4.97;;
5616;SDS011;2830;50.656;7.568;2023-04-25T02:52:22;14.40;;;4.35;;
5616;SDS011;2830;50.656;7.568;2023-04-25T02:54:49;13.50;;;4.60;;
5616;SDS011;2830;50.656;7.568;2023-04-25T02:57:15;22.15;;;4.68;;
5616;SDS011;2830;50.656;7.568;2023-04-25T02:59:42;21.10;;;5.25;;
5616;SDS011;2830;50.656;7.568;2023-04-25T03:02:09;16.65;;;5.70;;
5616;SDS011;2830;50.656;7.568;2023-04-25T03:04:36;13.40;;;4.15;;
5616;SDS011;2830;50.656;7.568;2023-04-25T03:07:03;13.77;;;4.68;;
5616;SDS011;2830;50.656;7.568;2023-04-25T03:09:30;13.77;;;4.95;;
5616;SDS011;2830;50.656;7.568;2023-04-25T03:11:57;17.70;;;4.90;;
5616;SDS011;2830;50.656;7.568;2023-04-25T03:14:24;13.15;;;4.65;;
5616;SDS011;2830;50.656;7.568;2023-04-25T03:16:50;21.00;;;4.70;;
5616;SDS011;2830;50.656;7.568;2023-04-25T03:19:17;11.73;;;3.90;;
5616;SDS011;2830;50.656;7.568;2023-04-25T03:21:44;21.42;;;4.70;;
5616;SDS011;2830;50.656;7.568;2023-04-25T03:24:11;14.90;;;5.60;;
5616;SDS011;2830;50.656;7.568;2023-04-25T03:26:38;13.27;;;4.72;;
5616;SDS011;2830;50.656;7.568;2023-04-25T03:29:05;21.83;;;5.75;;
5616;SDS011;2830;50.656;7.568;2023-04-25T03:31:31;22.33;;;5.63;;
5616;SDS011;2830;50.656;7.568;2023-04-25T03:33:58;13.40;;;4.30;;
5616;SDS011;2830;50.656;7.568;2023-04-25T03:36:25;13.18;;;4.50;;
5616;SDS011;2830;50.656;7.568;2023-04-25T03:38:53;14.20;;;4.10;;
5616;SDS011;2830;50.656;7.568;2023-04-25T03:41:20;16.15;;;4.07;;
5616;SDS011;2830;50.656;7.568;2023-04-25T03:43:47;13.60;;;4.65;;
5616;SDS011;2830;50.656;7.568;2023-04-25T03:46:14;18.27;;;5.43;;
5616;SDS011;2830;50.656;7.568;2023-04-25T03:48:40;11.85;;;4.07;;
5616;SDS011;2830;50.656;7.568;2023-04-25T03:51:07;12.35;;;3.55;;
5616;SDS011;2830;50.656;7.568;2023-04-25T03:53:34;18.70;;;5.00;;
5616;SDS011;2830;50.656;7.568;2023-04-25T03:56:00;13.93;;;5.10;;
5616;SDS011;2830;50.656;7.568;2023-04-25T03:58:27;13.98;;;4.90;;
5616;SDS011;2830;50.656;7.568;2023-04-25T04:00:53;12.70;;;4.40;;
5616;SDS011;2830;50.656;7.568;2023-04-25T04:03:20;14.63;;;4.68;;
5616;SDS011;2830;50.656;7.568;2023-04-25T04:05:47;15.30;;;4.85;;
5616;SDS011;2830;50.656;7.568;2023-04-25T04:08:14;13.10;;;4.70;;
5616;SDS011;2830;50.656;7.568;2023-04-25T04:10:43;15.07;;;4.53;;
5616;SDS011;2830;50.656;7.568;2023-04-25T04:13:09;12.25;;;4.20;;
5616;SDS011;2830;50.656;7.568;2023-04-25T04:15:36;13.55;;;4.60;;
5616;SDS011;2830;50.656;7.568;2023-04-25T04:18:03;13.25;;;4.47;;
5616;SDS011;2830;50.656;7.568;2023-04-25T04:20:30;15.60;;;4.22;;
5616;SDS011;2830;50.656;7.568;2023-04-25T04:22:56;11.05;;;3.85;;
5616;SDS011;2830;50.656;7.568;2023-04-25T04:25:23;15.02;;;4.35;;
5616;SDS011;2830;50.656;7.568;2023-04-25T04:27:50;12.38;;;3.80;;
5616;SDS011;2830;50.656;7.568;2023-04-25T04:30:22;12.88;;;4.20;;
5616;SDS011;2830;50.656;7.568;2023-04-25T04:32:55;15.90;;;4.32;;
5616;SDS011;2830;50.656;7.568;2023-04-25T04:35:27;14.93;;;5.25;;
5616;SDS011;2830;50.656;7.568;2023-04-25T04:37:53;14.25;;;4.80;;
5616;SDS011;2830;50.656;7.568;2023-04-25T04:40:20;13.43;;;4.95;;
5616;SDS011;2830;50.656;7.568;2023-04-25T04:42:47;13.27;;;4.88;;
5616;SDS011;2830;50.656;7.568;2023-04-25T04:45:15;17.30;;;5.30;;
5616;SDS011;2830;50.656;7.568;2023-04-25T04:47:42;15.07;;;4.55;;
5616;SDS011;2830;50.656;7.568;2023-04-25T04:50:09;14.63;;;6.10;;
5616;SDS011;2830;50.656;7.568;2023-04-25T04:52:37;16.25;;;5.47;;
5616;SDS011;2830;50.656;7.568;2023-04-25T04:55:04;16.42;;;5.72;;
5616;SDS011;2830;50.656;7.568;2023-04-25T04:57:31;14.05;;;4.97;;
5616;SDS011;2830;50.656;7.568;2023-04-25T04:59:59;13.73;;;4.55;;
5616;SDS011;2830;50.656;7.568;2023-04-25T05:02:26;12.40;;;4.30;;
5616;SDS011;2830;50.656;7.568;2023-04-25T05:04:55;13.45;;;4.88;;
5616;SDS011;2830;50.656;7.568;2023-04-25T05:07:22;12.57;;;4.97;;
5616;SDS011;2830;50.656;7.568;2023-04-25T05:09:49;15.30;;;4.63;;
5616;SDS011;2830;50.656;7.568;2023-04-25T05:12:17;14.05;;;4.68;;
5616;SDS011;2830;50.656;7.568;2023-04-25T05:14:43;15.35;;;4.68;;
5616;SDS011;2830;50.656;7.568;2023-04-25T05:17:10;12.65;;;4.30;;
5616;SDS011;2830;50.656;7.568;2023-04-25T05:19:37;13.57;;;4.55;;
5616;SDS011;2830;50.656;7.568;2023-04-25T05:22:04;12.98;;;5.13;;
5616;SDS011;2830;50.656;7.568;2023-04-25T05:24:31;14.45;;;4.47;;
5616;SDS011;2830;50.656;7.568;2023-04-25T05:26:57;14.55;;;4.53;;
5616;SDS011;2830;50.656;7.568;2023-04-25T05:29:24;14.07;;;4.90;;
5616;SDS011;2830;50.656;7.568;2023-04-25T05:31:51;18.73;;;5.20;;
5616;SDS011;2830;50.656;7.568;2023-04-25T05:34:17;15.82;;;5.22;;
5616;SDS011;2830;50.656;7.568;2023-04-25T05:36:44;16.50;;;5.25;;
5616;SDS011;2830;50.656;7.568;2023-04-25T05:39:17;17.43;;;4.50;;
5616;SDS011;2830;50.656;7.568;2023-04-25T05:41:43;14.80;;;5.80;;
5616;SDS011;2830;50.656;7.568;2023-04-25T05:44:10;16.67;;;5.83;;
5616;SDS011;2830;50.656;7.568;2023-04-25T05:46:37;18.37;;;5.77;;
5616;SDS011;2830;50.656;7.568;2023-04-25T05:49:04;18.83;;;5.23;;
5616;SDS011;2830;50.656;7.568;2023-04-25T05:51:30;18.90;;;5.30;;
5616;SDS011;2830;50.656;7.568;2023-04-25T05:53:57;24.13;;;6.00;;
5616;SDS011;2830;50.656;7.568;2023-04-25T05:56:24;24.13;;;5.90;;
5616;SDS011;2830;50.656;7.568;2023-04-25T05:58:50;28.20;;;6.10;;
5616;SDS011;2830;50.656;7.568;2023-04-25T06:01:17;17.00;;;6.00;;
5616;SDS011;2830;50.656;7.568;2023-04-25T06:03:44;22.10;;;5.87;;
5616;SDS011;2830;50.656;7.568;2023-04-25T06:06:11;22.83;;;6.07;;
5616;SDS011;2830;50.656;7.568;2023-04-25T06:08:38;15.57;;;5.97;;
5616;SDS011;2830;50.656;7.568;2023-04-25T06:11:04;22.40;;;7.37;;
5616;SDS011;2830;50.656;7.568;2023-04-25T06:13:33;26.50;;;7.97;;
5616;SDS011;2830;50.656;7.568;2023-04-25T06:15:59;21.33;;;7.40;;
5616;SDS011;2830;50.656;7.568;2023-04-25T06:20:56;22.23;;;8.77;;
5616;SDS011;2830;50.656;7.568;2023-04-25T06:23:23;29.93;;;11.60;;
5616;SDS011;2830;50.656;7.568;2023-04-25T06:25:49;22.57;;;9.20;;
5616;SDS011;2830;50.656;7.568;2023-04-25T06:28:16;29.63;;;10.57;;
5616;SDS011;2830;50.656;7.568;2023-04-25T06:30:43;22.27;;;9.67;;
5616;SDS011;2830;50.656;7.568;2023-04-25T06:33:09;22.67;;;10.10;;
5616;SDS011;2830;50.656;7.568;2023-04-25T06:35:36;20.03;;;10.20;;
5616;SDS011;2830;50.656;7.568;2023-04-25T06:38:03;29.33;;;11.17;;
5616;SDS011;2830;50.656;7.568;2023-04-25T06:40:29;26.37;;;10.57;;
5616;SDS011;2830;50.656;7.568;2023-04-25T06:42:56;26.80;;;11.03;;
5616;SDS011;2830;50.656;7.568;2023-04-25T06:45:23;25.27;;;12.03;;
5616;SDS011;2830;50.656;7.568;2023-04-25T06:47:49;26.70;;;11.13;;
5616;SDS011;2830;50.656;7.568;2023-04-25T06:50:16;27.03;;;10.13;;
5616;SDS011;2830;50.656;7.568;2023-04-25T06:52:43;29.10;;;10.10;;
5616;SDS011;2830;50.656;7.568;2023-04-25T06:55:09;30.37;;;10.87;;
5616;SDS011;2830;50.656;7.568;2023-04-25T06:57:36;26.07;;;10.07;;
5616;SDS011;2830;50.656;7.568;2023-04-25T07:00:03;25.30;;;10.57;;
5616;SDS011;2830;50.656;7.568;2023-04-25T07:02:35;24.97;;;11.27;;
5616;SDS011;2830;50.656;7.568;2023-04-25T07:05:03;19.90;;;9.77;;
5616;SDS011;2830;50.656;7.568;2023-04-25T07:07:30;22.13;;;9.00;;
5616;SDS011;2830;50.656;7.568;2023-04-25T07:09:57;25.70;;;9.70;;
5616;SDS011;2830;50.656;7.568;2023-04-25T07:12:23;22.07;;;9.27;;
5616;SDS011;2830;50.656;7.568;2023-04-25T07:14:50;25.50;;;9.13;;
5616;SDS011;2830;50.656;7.568;2023-04-25T07:17:17;23.23;;;8.97;;
5616;SDS011;2830;50.656;7.568;2023-04-25T07:19:44;24.60;;;8.77;;
5616;SDS011;2830;50.656;7.568;2023-04-25T07:22:11;24.90;;;8.97;;
5616;SDS011;2830;50.656;7.568;2023-04-25T07:24:37;35.07;;;9.30;;
5616;SDS011;2830;50.656;7.568;2023-04-25T07:27:04;19.40;;;8.37;;
5616;SDS011;2830;50.656;7.568;2023-04-25T07:29:31;29.60;;;7.90;;
5616;SDS011;2830;50.656;7.568;2023-04-25T07:31:58;23.67;;;8.33;;
5616;SDS011;2830;50.656;7.568;2023-04-25T07:34:26;24.80;;;7.97;;
5616;SDS011;2830;50.656;7.568;2023-04-25T07:36:52;16.30;;;7.07;;
5616;SDS011;2830;50.656;7.568;2023-04-25T07:39:19;19.87;;;6.83;;
5616;SDS011;2830;50.656;7.568;2023-04-25T07:41:46;29.13;;;7.30;;
5616;SDS011;2830;50.656;7.568;2023-04-25T07:44:12;23.27;;;8.40;;
5616;SDS011;2830;50.656;7.568;2023-04-25T07:46:39;26.70;;;8.20;;
5616;SDS011;2830;50.656;7.568;2023-04-25T07:49:06;24.27;;;7.63;;
5616;SDS011;2830;50.656;7.568;2023-04-25T07:51:32;17.03;;;6.00;;
5616;SDS011;2830;50.656;7.568;2023-04-25T07:53:59;17.60;;;6.60;;
5616;SDS011;2830;50.656;7.568;2023-04-25T07:56:26;21.23;;;6.57;;
5616;SDS011;2830;50.656;7.568;2023-04-25T07:58:59;16.03;;;4.47;;
5616;SDS011;2830;50.656;7.568;2023-04-25T08:01:26;22.33;;;4.70;;
5616;SDS011;2830;50.656;7.568;2023-04-25T08:03:53;19.60;;;7.77;;
5616;SDS011;2830;50.656;7.568;2023-04-25T08:06:20;18.43;;;6.03;;
5616;SDS011;2830;50.656;7.568;2023-04-25T08:08:47;17.03;;;5.53;;
5616;SDS011;2830;50.656;7.568;2023-04-25T08:11:14;18.80;;;4.20;;
5616;SDS011;2830;50.656;7.568;2023-04-25T08:13:41;15.00;;;4.10;;
5616;SDS011;2830;50.656;7.568;2023-04-25T08:16:08;18.93;;;3.50;;
5616;SDS011;2830;50.656;7.568;2023-04-25T08:18:35;16.87;;;3.67;;
5616;SDS011;2830;50.656;7.568;2023-04-25T08:21:01;19.80;;;4.33;;
5616;SDS011;2830;50.656;7.568;2023-04-25T08:23:28;14.57;;;4.10;;
5616;SDS011;2830;50.656;7.568;2023-04-25T08:25:55;14.70;;;3.70;;
5616;SDS011;2830;50.656;7.568;2023-04-25T08:28:22;11.80;;;4.17;;
5616;SDS011;2830;50.656;7.568;2023-04-25T08:30:48;18.73;;;3.30;;
5616;SDS011;2830;50.656;7.568;2023-04-25T08:33:15;14.73;;;3.50;;
5616;SDS011;2830;50.656;7.568;2023-04-25T08:35:42;11.70;;;3.80;;
5616;SDS011;2830;50.656;7.568;2023-04-25T08:38:11;17.80;;;3.80;;
5616;SDS011;2830;50.656;7.568;2023-04-25T08:40:38;22.37;;;3.73;;
5616;SDS011;2830;50.656;7.568;2023-04-25T08:43:06;16.30;;;3.60;;
5616;SDS011;2830;50.656;7.568;2023-04-25T08:45:41;16.77;;;3.33;;
5616;SDS011;2830;50.656;7.568;2023-04-25T08:48:13;21.70;;;4.07;;
5616;SDS011;2830;50.656;7.568;2023-04-25T08:50:52;13.43;;;3.93;;
5616;SDS011;2830;50.656;7.568;2023-04-25T08:53:25;19.50;;;4.33;;
5616;SDS011;2830;50.656;7.568;2023-04-25T08:55:54;25.90;;;4.30;;
5616;SDS011;2830;50.656;7.568;2023-04-25T08:58:22;28.83;;;4.87;;
5616;SDS011;2830;50.656;7.568;2023-04-25T09:00:49;14.93;;;3.53;;
5616;SDS011;2830;50.656;7.568;2023-04-25T09:03:17;19.57;;;4.53;;
5616;SDS011;2830;50.656;7.568;2023-04-25T09:05:44;17.57;;;3.93;;
5616;SDS011;2830;50.656;7.568;2023-04-25T09:08:11;20.63;;;4.30;;
5616;SDS011;2830;50.656;7.568;2023-04-25T09:10:38;19.57;;;4.60;;
5616;SDS011;2830;50.656;7.568;2023-04-25T09:13:09;18.13;;;5.27;;
5616;SDS011;2830;50.656;7.568;2023-04-25T09:15:54;21.17;;;4.50;;
5616;SDS011;2830;50.656;7.568;2023-04-25T09:18:25;17.30;;;4.70;;
5616;SDS011;2830;50.656;7.568;2023-04-25T09:21:09;15.00;;;3.37;;
5616;SDS011;2830;50.656;7.568;2023-04-25T09:23:58;17.07;;;4.23;;
5616;SDS011;2830;50.656;7.568;2023-04-25T09:26:25;19.43;;;3.20;;
5616;SDS011;2830;50.656;7.568;2023-04-25T09:29:04;17.70;;;3.33;;
5616;SDS011;2830;50.656;7.568;2023-04-25T09:31:33;16.03;;;3.80;;
5616;SDS011;2830;50.656;7.568;2023-04-25T09:34:00;20.87;;;5.13;;
5616;SDS011;2830;50.656;7.568;2023-04-25T09:36:28;16.03;;;4.40;;
5616;SDS011;2830;50.656;7.568;2023-04-25T09:38:56;19.90;;;3.17;;
5616;SDS011;2830;50.656;7.568;2023-04-25T09:41:25;14.80;;;3.93;;
5616;SDS011;2830;50.656;7.568;2023-04-25T09:43:52;16.83;;;4.27;;
5616;SDS011;2830;50.656;7.568;2023-04-25T09:46:24;15.03;;;3.07;;
5616;SDS011;2830;50.656;7.568;2023-04-25T09:48:51;14.53;;;3.37;;
5616;SDS011;2830;50.656;7.568;2023-04-25T09:51:19;13.97;;;2.93;;
5616;SDS011;2830;50.656;7.568;2023-04-25T09:53:46;20.00;;;3.93;;
5616;SDS011;2830;50.656;7.568;2023-04-25T09:56:17;17.20;;;3.07;;
5616;SDS011;2830;50.656;7.568;2023-04-25T09:58:46;11.80;;;2.70;;
5616;SDS011;2830;50.656;7.568;2023-04-25T10:01:14;14.20;;;2.97;;
5616;SDS011;2830;50.656;7.568;2023-04-25T10:03:43;13.70;;;3.83;;
5616;SDS011;2830;50.656;7.568;2023-04-25T10:06:13;15.70;;;3.00;;
5616;SDS011;2830;50.656;7.568;2023-04-25T10:08:45;22.37;;;4.17;;
5616;SDS011;2830;50.656;7.568;2023-04-25T10:11:15;17.97;;;3.67;;
5616;SDS011;2830;50.656;7.568;2023-04-25T10:13:43;17.83;;;3.17;;
5616;SDS011;2830;50.656;7.568;2023-04-25T10:16:10;15.17;;;3.87;;
5616;SDS011;2830;50.656;7.568;2023-04-25T10:18:37;14.57;;;4.10;;
5616;SDS011;2830;50.656;7.568;2023-04-25T10:21:04;11.83;;;4.10;;
5616;SDS011;2830;50.656;7.568;2023-04-25T10:23:32;16.43;;;3.50;;
5616;SDS011;2830;50.656;7.568;2023-04-25T10:26:00;12.23;;;3.00;;
5616;SDS011;2830;50.656;7.568;2023-04-25T10:28:27;16.63;;;3.87;;
5616;SDS011;2830;50.656;7.568;2023-04-25T10:30:58;13.17;;;3.27;;
5616;SDS011;2830;50.656;7.568;2023-04-25T10:33:29;20.50;;;4.40;;
5616;SDS011;2830;50.656;7.568;2023-04-25T10:36:04;14.10;;;3.07;;
5616;SDS011;2830;50.656;7.568;2023-04-25T10:38:38;15.63;;;3.40;;
5616;SDS011;2830;50.656;7.568;2023-04-25T10:41:06;15.70;;;3.50;;
5616;SDS011;2830;50.656;7.568;2023-04-25T10:48:48;19.67;;;3.33;;
5616;SDS011;2830;50.656;7.568;2023-04-25T10:51:18;12.87;;;3.53;;
5616;SDS011;2830;50.656;7.568;2023-04-25T10:53:58;11.70;;;2.70;;
5616;SDS011;2830;50.656;7.568;2023-04-25T10:56:25;21.67;;;3.30;;
5616;SDS011;2830;50.656;7.568;2023-04-25T11:01:40;15.90;;;3.20;;
5616;SDS011;2830;50.656;7.568;2023-04-25T11:09:33;15.57;;;4.70;;
5616;SDS011;2830;50.656;7.568;2023-04-25T11:12:01;16.40;;;3.50;;
5616;SDS011;2830;50.656;7.568;2023-04-25T11:14:28;16.83;;;3.57;;
5616;SDS011;2830;50.656;7.568;2023-04-25T11:16:55;13.43;;;2.43;;
5616;SDS011;2830;50.656;7.568;2023-04-25T11:19:26;17.47;;;4.00;;
5616;SDS011;2830;50.656;7.568;2023-04-25T11:21:56;11.57;;;2.37;;
5616;SDS011;2830;50.656;7.568;2023-04-25T11:24:28;14.50;;;2.40;;
5616;SDS011;2830;50.656;7.568;2023-04-25T11:26:56;20.73;;;3.27;;
5616;SDS011;2830;50.656;7.568;2023-04-25T11:29:28;12.50;;;2.60;;
5616;SDS011;2830;50.656;7.568;2023-04-25T11:31:56;13.83;;;3.53;;
5616;SDS011;2830;50.656;7.568;2023-04-25T11:34:25;13.30;;;3.07;;
5616;SDS011;2830;50.656;7.568;2023-04-25T11:36:53;17.13;;;3.50;;
5616;SDS011;2830;50.656;7.568;2023-04-25T11:39:21;12.87;;;2.37;;
5616;SDS011;2830;50.656;7.568;2023-04-25T11:41:49;14.80;;;3.10;;
5616;SDS011;2830;50.656;7.568;2023-04-25T11:44:17;13.13;;;2.77;;
5616;SDS011;2830;50.656;7.568;2023-04-25T11:46:45;11.97;;;2.60;;
5616;SDS011;2830;50.656;7.568;2023-04-25T11:49:12;20.53;;;2.90;;
5616;SDS011;2830;50.656;7.568;2023-04-25T11:51:45;10.73;;;2.17;;
5616;SDS011;2830;50.656;7.568;2023-04-25T11:54:13;15.20;;;2.67;;
5616;SDS011;2830;50.656;7.568;2023-04-25T11:56:41;11.87;;;2.40;;
5616;SDS011;2830;50.656;7.568;2023-04-25T11:59:08;22.30;;;3.07;;
5616;SDS011;2830;50.656;7.568;2023-04-25T12:01:36;17.37;;;2.30;;
5616;SDS011;2830;50.656;7.568;2023-04-25T12:04:12;23.53;;;3.07;;
5616;SDS011;2830;50.656;7.568;2023-04-25T12:06:41;14.27;;;2.50;;
5616;SDS011;2830;50.656;7.568;2023-04-25T12:09:10;12.77;;;2.70;;
5616;SDS011;2830;50.656;7.568;2023-04-25T12:11:44;12.93;;;2.70;;
5616;SDS011;2830;50.656;7.568;2023-04-25T12:14:12;16.13;;;3.53;;
5616;SDS011;2830;50.656;7.568;2023-04-25T12:16:48;16.83;;;2.67;;
5616;SDS011;2830;50.656;7.568;2023-04-25T12:19:15;13.47;;;2.97;;
5616;SDS011;2830;50.656;7.568;2023-04-25T12:21:43;15.43;;;2.83;;
5616;SDS011;2830;50.656;7.568;2023-04-25T12:24:24;20.03;;;2.97;;
5616;SDS011;2830;50.656;7.568;2023-04-25T12:27:01;13.20;;;3.00;;
5616;SDS011;2830;50.656;7.568;2023-04-25T12:29:29;17.80;;;3.07;;
5616;SDS011;2830;50.656;7.568;2023-04-25T12:32:14;15.50;;;2.80;;
5616;SDS011;2830;50.656;7.568;2023-04-25T12:34:41;19.23;;;3.43;;
5616;SDS011;2830;50.656;7.568;2023-04-25T12:37:08;13.33;;;3.83;;
5616;SDS011;2830;50.656;7.568;2023-04-25T12:39:34;11.47;;;2.83;;
5616;SDS011;2830;50.656;7.568;2023-04-25T12:42:01;13.87;;;3.10;;
5616;SDS011;2830;50.656;7.568;2023-04-25T12:44:30;14.87;;;2.83;;
5616;SDS011;2830;50.656;7.568;2023-04-25T12:46:57;13.47;;;3.80;;
5616;SDS011;2830;50.656;7.568;2023-04-25T12:49:23;13.40;;;3.40;;
5616;SDS011;2830;50.656;7.568;2023-04-25T12:51:51;11.87;;;2.30;;
5616;SDS011;2830;50.656;7.568;2023-04-25T12:54:18;13.80;;;2.90;;
5616;SDS011;2830;50.656;7.568;2023-04-25T12:56:44;14.03;;;2.30;;
5616;SDS011;2830;50.656;7.568;2023-04-25T12:59:12;11.00;;;2.00;;
5616;SDS011;2830;50.656;7.568;2023-04-25T13:01:39;15.40;;;2.70;;
5616;SDS011;2830;50.656;7.568;2023-04-25T13:04:06;14.50;;;2.00;;
5616;SDS011;2830;50.656;7.568;2023-04-25T13:06:32;11.70;;;3.80;;
5616;SDS011;2830;50.656;7.568;2023-04-25T13:08:59;14.07;;;2.20;;
5616;SDS011;2830;50.656;7.568;2023-04-25T13:11:26;15.53;;;3.17;;
5616;SDS011;2830;50.656;7.568;2023-04-25T13:13:53;12.97;;;2.60;;
5616;SDS011;2830;50.656;7.568;2023-04-25T13:16:20;13.97;;;3.00;;
5616;SDS011;2830;50.656;7.568;2023-04-25T13:18:47;13.27;;;2.90;;
5616;SDS011;2830;50.656;7.568;2023-04-25T13:21:14;15.23;;;2.80;;
5616;SDS011;2830;50.656;7.568;2023-04-25T13:23:41;14.80;;;2.37;;
5616;SDS011;2830;50.656;7.568;2023-04-25T13:26:12;13.80;;;2.10;;
5616;SDS011;2830;50.656;7.568;2023-04-25T13:28:39;11.60;;;2.37;;
5616;SDS011;2830;50.656;7.568;2023-04-25T13:31:09;15.70;;;2.60;;
5616;SDS011;2830;50.656;7.568;2023-04-25T13:33:36;14.20;;;2.97;;
5616;SDS011;2830;50.656;7.568;2023-04-25T13:36:02;14.10;;;2.00;;
5616;SDS011;2830;50.656;7.568;2023-04-25T13:38:29;12.70;;;2.47;;
5616;SDS011;2830;50.656;7.568;2023-04-25T13:40:56;11.03;;;2.20;;
5616;SDS011;2830;50.656;7.568;2023-04-25T13:43:23;12.20;;;2.17;;
5616;SDS011;2830;50.656;7.568;2023-04-25T13:45:50;14.10;;;2.30;;
5616;SDS011;2830;50.656;7.568;2023-04-25T13:48:17;17.33;;;2.57;;
5616;SDS011;2830;50.656;7.568;2023-04-25T13:50:46;14.60;;;2.73;;
5616;SDS011;2830;50.656;7.568;2023-04-25T13:53:12;10.63;;;2.27;;
5616;SDS011;2830;50.656;7.568;2023-04-25T13:55:39;12.50;;;2.30;;
5616;SDS011;2830;50.656;7.568;2023-04-25T13:58:06;14.47;;;2.50;;
5616;SDS011;2830;50.656;7.568;2023-04-25T14:00:36;15.07;;;2.70;;
5616;SDS011;2830;50.656;7.568;2023-04-25T14:03:05;14.60;;;2.20;;
5616;SDS011;2830;50.656;7.568;2023-04-25T14:05:34;18.43;;;2.60;;
5616;SDS011;2830;50.656;7.568;2023-04-25T14:08:08;14.33;;;2.10;;
5616;SDS011;2830;50.656;7.568;2023-04-25T14:10:36;13.93;;;2.00;;
5616;SDS011;2830;50.656;7.568;2023-04-25T14:13:03;12.23;;;1.80;;
5616;SDS011;2830;50.656;7.568;2023-04-25T14:15:32;10.87;;;1.90;;
5616;SDS011;2830;50.656;7.568;2023-04-25T14:17:59;12.57;;;2.33;;
5616;SDS011;2830;50.656;7.568;2023-04-25T14:20:26;17.80;;;3.73;;
5616;SDS011;2830;50.656;7.568;2023-04-25T14:22:54;13.43;;;2.97;;
5616;SDS011;2830;50.656;7.568;2023-04-25T14:25:22;12.83;;;2.50;;
5616;SDS011;2830;50.656;7.568;2023-04-25T14:27:49;12.53;;;2.30;;
5616;SDS011;2830;50.656;7.568;2023-04-25T14:30:17;11.27;;;1.77;;
5616;SDS011;2830;50.656;7.568;2023-04-25T14:32:44;12.17;;;2.07;;
5616;SDS011;2830;50.656;7.568;2023-04-25T14:35:11;14.30;;;2.27;;
5616;SDS011;2830;50.656;7.568;2023-04-25T14:37:38;11.20;;;2.03;;
5616;SDS011;2830;50.656;7.568;2023-04-25T14:40:05;19.90;;;2.67;;
5616;SDS011;2830;50.656;7.568;2023-04-25T14:42:36;16.87;;;2.43;;
5616;SDS011;2830;50.656;7.568;2023-04-25T14:45:04;11.17;;;1.90;;
5616;SDS011;2830;50.656;7.568;2023-04-25T14:47:32;12.70;;;2.00;;
5616;SDS011;2830;50.656;7.568;2023-04-25T14:49:59;13.13;;;2.30;;
5616;SDS011;2830;50.656;7.568;2023-04-25T14:52:27;12.60;;;1.70;;
5616;SDS011;2830;50.656;7.568;2023-04-25T14:54:54;18.00;;;2.40;;
5616;SDS011;2830;50.656;7.568;2023-04-25T14:57:20;12.00;;;2.33;;
5616;SDS011;2830;50.656;7.568;2023-04-25T14:59:47;12.13;;;2.10;;
5616;SDS011;2830;50.656;7.568;2023-04-25T15:02:14;11.03;;;2.07;;
5616;SDS011;2830;50.656;7.568;2023-04-25T15:04:40;10.80;;;1.70;;
5616;SDS011;2830;50.656;7.568;2023-04-25T15:07:07;11.47;;;2.17;;
5616;SDS011;2830;50.656;7.568;2023-04-25T15:09:34;14.50;;;1.63;;
5616;SDS011;2830;50.656;7.568;2023-04-25T15:12:01;11.33;;;1.93;;
5616;SDS011;2830;50.656;7.568;2023-04-25T15:14:28;10.23;;;1.70;;
5616;SDS011;2830;50.656;7.568;2023-04-25T15:16:55;17.50;;;2.47;;
5616;SDS011;2830;50.656;7.568;2023-04-25T15:19:21;13.33;;;2.40;;